sensor_id;sensor_type;location;lat;lon;timestamp;P1;durP1;ratioP1;P2;durP2;ratioP2
10295;SDS011;5193;51.032;6.356;2023-07-28T00:00:24;1.20;;;1.10;;
10295;SDS011;5193;51.032;6.356;2023-07-28T00:02:49;1.97;;;1.07;;
10295;SDS011;5193;51.032;6.356;2023-07-28T00:05:15;1.87;;;1.10;;
10295;SDS011;5193;51.032;6.356;2023-07-28T00:07:40;2.20;;;1.00;;
10295;SDS011;5193;51.032;6.356;2023-07-28T00:10:06;2.20;;;0.90;;
10295;SDS011;5193;51.032;6.356;2023-07-28T00:12:32;3.37;;;1.00;;
10295;SDS011;5193;51.032;6.356;2023-07-28T00:14:57;3.10;;;1.20;;
10295;SDS011;5193;51.032;6.356;2023-07-28T00:17:24;1.67;;;1.00;;
10295;SDS011;5193;51.032;6.356;2023-07-28T00:19:50;1.60;;;1.17;;
10295;SDS011;5193;51.032;6.356;2023-07-28T00:22:16;3.00;;;0.90;;
10295;SDS011;5193;51.032;6.356;2023-07-28T00:24:42;2.90;;;1.00;;
10295;SDS011;5193;51.032;6.356;2023-07-28T00:27:07;0.90;;;0.70;;
10295;SDS011;5193;51.032;6.356;2023-07-28T00:29:33;7.37;;;1.17;;
10295;SDS011;5193;51.032;6.356;2023-07-28T00:31:58;1.40;;;1.10;;
10295;SDS011;5193;51.032;6.356;2023-07-28T00:34:24;1.00;;;0.90;;
10295;SDS011;5193;51.032;6.356;2023-07-28T00:36:49;3.90;;;0.93;;
10295;SDS011;5193;51.032;6.356;2023-07-28T00:39:15;2.10;;;1.10;;
10295;SDS011;5193;51.032;6.356;2023-07-28T00:41:40;1.50;;;1.10;;
10295;SDS011;5193;51.032;6.356;2023-07-28T00:44:06;1.93;;;1.00;;
10295;SDS011;5193;51.032;6.356;2023-07-28T00:46:32;6.23;;;1.10;;
10295;SDS011;5193;51.032;6.356;2023-07-28T00:48:57;1.73;;;1.20;;
10295;SDS011;5193;51.032;6.356;2023-07-28T00:51:23;3.10;;;1.13;;
10295;SDS011;5193;51.032;6.356;2023-07-28T00:53:49;1.63;;;1.10;;
10295;SDS011;5193;51.032;6.356;2023-07-28T00:56:17;1.37;;;1.27;;
10295;SDS011;5193;51.032;6.356;2023-07-28T00:58:44;3.20;;;1.33;;
10295;SDS011;5193;51.032;6.356;2023-07-28T01:01:09;3.37;;;1.20;;
10295;SDS011;5193;51.032;6.356;2023-07-28T01:03:35;6.80;;;0.97;;
10295;SDS011;5193;51.032;6.356;2023-07-28T01:09:09;8.43;;;1.50;;
10295;SDS011;5193;51.032;6.356;2023-07-28T01:11:38;5.73;;;1.60;;
10295;SDS011;5193;51.032;6.356;2023-07-28T01:14:18;1.67;;;1.27;;
10295;SDS011;5193;51.032;6.356;2023-07-28T01:16:43;6.27;;;1.30;;
10295;SDS011;5193;51.032;6.356;2023-07-28T01:19:09;3.13;;;1.47;;
10295;SDS011;5193;51.032;6.356;2023-07-28T01:21:36;1.60;;;1.30;;
10295;SDS011;5193;51.032;6.356;2023-07-28T01:24:15;2.17;;;1.30;;
10295;SDS011;5193;51.032;6.356;2023-07-28T01:26:51;6.13;;;1.70;;
10295;SDS011;5193;51.032;6.356;2023-07-28T01:29:16;5.00;;;1.40;;
10295;SDS011;5193;51.032;6.356;2023-07-28T01:31:45;3.80;;;1.43;;
10295;SDS011;5193;51.032;6.356;2023-07-28T01:34:12;1.73;;;1.60;;
10295;SDS011;5193;51.032;6.356;2023-07-28T01:36:38;2.97;;;1.50;;
10295;SDS011;5193;51.032;6.356;2023-07-28T01:39:04;2.10;;;1.37;;
10295;SDS011;5193;51.032;6.356;2023-07-28T01:41:30;3.90;;;1.67;;
10295;SDS011;5193;51.032;6.356;2023-07-28T01:43:55;4.93;;;2.17;;
10295;SDS011;5193;51.032;6.356;2023-07-28T01:46:21;2.43;;;1.83;;
10295;SDS011;5193;51.032;6.356;2023-07-28T01:48:47;5.00;;;2.00;;
10295;SDS011;5193;51.032;6.356;2023-07-28T01:51:13;2.93;;;1.90;;
10295;SDS011;5193;51.032;6.356;2023-07-28T01:53:39;2.50;;;1.87;;
10295;SDS011;5193;51.032;6.356;2023-07-28T01:56:04;3.73;;;1.80;;
10295;SDS011;5193;51.032;6.356;2023-07-28T01:58:30;4.40;;;1.80;;
10295;SDS011;5193;51.032;6.356;2023-07-28T02:00:56;4.27;;;1.50;;
10295;SDS011;5193;51.032;6.356;2023-07-28T02:03:21;3.80;;;1.57;;
10295;SDS011;5193;51.032;6.356;2023-07-28T02:05:47;2.37;;;1.67;;
10295;SDS011;5193;51.032;6.356;2023-07-28T02:08:13;2.80;;;2.17;;
10295;SDS011;5193;51.032;6.356;2023-07-28T02:10:39;6.73;;;2.30;;
10295;SDS011;5193;51.032;6.356;2023-07-28T02:13:05;5.43;;;1.93;;
10295;SDS011;5193;51.032;6.356;2023-07-28T02:15:30;1.77;;;1.63;;
10295;SDS011;5193;51.032;6.356;2023-07-28T02:17:56;3.03;;;1.90;;
10295;SDS011;5193;51.032;6.356;2023-07-28T02:20:22;2.73;;;1.70;;
10295;SDS011;5193;51.032;6.356;2023-07-28T02:22:47;1.90;;;1.70;;
10295;SDS011;5193;51.032;6.356;2023-07-28T02:25:13;2.53;;;1.80;;
10295;SDS011;5193;51.032;6.356;2023-07-28T02:27:39;3.40;;;2.00;;
10295;SDS011;5193;51.032;6.356;2023-07-28T02:30:05;6.00;;;1.60;;
10295;SDS011;5193;51.032;6.356;2023-07-28T02:32:31;2.53;;;1.90;;
10295;SDS011;5193;51.032;6.356;2023-07-28T02:34:58;1.87;;;1.27;;
10295;SDS011;5193;51.032;6.356;2023-07-28T02:37:24;3.27;;;1.73;;
10295;SDS011;5193;51.032;6.356;2023-07-28T02:39:50;2.40;;;1.50;;
10295;SDS011;5193;51.032;6.356;2023-07-28T02:42:15;6.10;;;1.50;;
10295;SDS011;5193;51.032;6.356;2023-07-28T02:44:41;3.90;;;1.20;;
10295;SDS011;5193;51.032;6.356;2023-07-28T02:47:07;5.10;;;1.50;;
10295;SDS011;5193;51.032;6.356;2023-07-28T02:49:33;8.13;;;1.70;;
10295;SDS011;5193;51.032;6.356;2023-07-28T02:51:58;2.83;;;1.27;;
10295;SDS011;5193;51.032;6.356;2023-07-28T02:54:24;1.83;;;1.23;;
10295;SDS011;5193;51.032;6.356;2023-07-28T02:56:50;6.00;;;1.53;;
10295;SDS011;5193;51.032;6.356;2023-07-28T02:59:16;1.67;;;1.10;;
10295;SDS011;5193;51.032;6.356;2023-07-28T03:01:42;2.27;;;1.50;;
10295;SDS011;5193;51.032;6.356;2023-07-28T03:04:08;3.80;;;1.20;;
10295;SDS011;5193;51.032;6.356;2023-07-28T03:06:33;3.50;;;1.10;;
10295;SDS011;5193;51.032;6.356;2023-07-28T03:08:59;2.77;;;1.07;;
10295;SDS011;5193;51.032;6.356;2023-07-28T03:11:25;4.73;;;1.00;;
10295;SDS011;5193;51.032;6.356;2023-07-28T03:13:50;2.77;;;1.10;;
10295;SDS011;5193;51.032;6.356;2023-07-28T03:16:16;4.20;;;0.90;;
10295;SDS011;5193;51.032;6.356;2023-07-28T03:18:42;1.30;;;0.97;;
10295;SDS011;5193;51.032;6.356;2023-07-28T03:21:10;2.03;;;0.90;;
10295;SDS011;5193;51.032;6.356;2023-07-28T03:23:36;2.57;;;1.10;;
10295;SDS011;5193;51.032;6.356;2023-07-28T03:26:02;1.77;;;1.00;;
10295;SDS011;5193;51.032;6.356;2023-07-28T03:28:28;2.30;;;1.10;;
10295;SDS011;5193;51.032;6.356;2023-07-28T03:30:53;1.17;;;0.90;;
10295;SDS011;5193;51.032;6.356;2023-07-28T03:33:19;1.93;;;1.00;;
10295;SDS011;5193;51.032;6.356;2023-07-28T03:35:44;2.50;;;1.20;;
10295;SDS011;5193;51.032;6.356;2023-07-28T03:38:10;5.57;;;1.50;;
10295;SDS011;5193;51.032;6.356;2023-07-28T03:40:36;2.97;;;1.10;;
10295;SDS011;5193;51.032;6.356;2023-07-28T03:43:02;3.03;;;1.07;;
10295;SDS011;5193;51.032;6.356;2023-07-28T03:45:28;3.00;;;0.93;;
10295;SDS011;5193;51.032;6.356;2023-07-28T03:47:54;1.77;;;0.93;;
10295;SDS011;5193;51.032;6.356;2023-07-28T03:50:19;2.43;;;0.90;;
10295;SDS011;5193;51.032;6.356;2023-07-28T03:52:45;1.10;;;1.00;;
10295;SDS011;5193;51.032;6.356;2023-07-28T03:55:11;1.33;;;1.13;;
10295;SDS011;5193;51.032;6.356;2023-07-28T03:57:36;1.73;;;1.00;;
10295;SDS011;5193;51.032;6.356;2023-07-28T04:00:02;2.23;;;1.20;;
10295;SDS011;5193;51.032;6.356;2023-07-28T04:02:28;1.50;;;1.17;;
10295;SDS011;5193;51.032;6.356;2023-07-28T04:04:54;3.27;;;1.10;;
10295;SDS011;5193;51.032;6.356;2023-07-28T04:07:20;1.73;;;0.90;;
10295;SDS011;5193;51.032;6.356;2023-07-28T04:09:46;2.70;;;1.30;;
10295;SDS011;5193;51.032;6.356;2023-07-28T04:12:12;1.67;;;1.10;;
10295;SDS011;5193;51.032;6.356;2023-07-28T04:14:38;1.13;;;1.03;;
10295;SDS011;5193;51.032;6.356;2023-07-28T04:17:03;3.13;;;1.30;;
10295;SDS011;5193;51.032;6.356;2023-07-28T04:19:29;3.30;;;1.30;;
10295;SDS011;5193;51.032;6.356;2023-07-28T04:21:56;1.23;;;1.10;;
10295;SDS011;5193;51.032;6.356;2023-07-28T04:24:21;1.43;;;1.20;;
10295;SDS011;5193;51.032;6.356;2023-07-28T04:26:47;3.70;;;1.40;;
10295;SDS011;5193;51.032;6.356;2023-07-28T04:29:14;2.20;;;0.97;;
10295;SDS011;5193;51.032;6.356;2023-07-28T04:31:39;3.53;;;1.00;;
10295;SDS011;5193;51.032;6.356;2023-07-28T04:34:05;1.43;;;1.13;;
10295;SDS011;5193;51.032;6.356;2023-07-28T04:36:31;3.07;;;1.23;;
10295;SDS011;5193;51.032;6.356;2023-07-28T04:38:56;1.80;;;1.03;;
10295;SDS011;5193;51.032;6.356;2023-07-28T04:41:22;2.17;;;1.07;;
10295;SDS011;5193;51.032;6.356;2023-07-28T04:43:47;1.67;;;0.90;;
10295;SDS011;5193;51.032;6.356;2023-07-28T04:46:13;1.33;;;1.10;;
10295;SDS011;5193;51.032;6.356;2023-07-28T04:48:39;3.07;;;1.00;;
10295;SDS011;5193;51.032;6.356;2023-07-28T04:51:04;2.53;;;0.87;;
10295;SDS011;5193;51.032;6.356;2023-07-28T04:53:30;4.23;;;0.90;;
10295;SDS011;5193;51.032;6.356;2023-07-28T04:55:56;0.80;;;0.80;;
10295;SDS011;5193;51.032;6.356;2023-07-28T04:58:21;3.33;;;1.00;;
10295;SDS011;5193;51.032;6.356;2023-07-28T05:00:47;2.43;;;1.23;;
10295;SDS011;5193;51.032;6.356;2023-07-28T05:03:12;1.20;;;1.10;;
10295;SDS011;5193;51.032;6.356;2023-07-28T05:05:38;2.30;;;0.97;;
10295;SDS011;5193;51.032;6.356;2023-07-28T05:08:04;3.27;;;1.03;;
10295;SDS011;5193;51.032;6.356;2023-07-28T05:10:29;3.23;;;0.90;;
10295;SDS011;5193;51.032;6.356;2023-07-28T05:12:55;2.20;;;1.37;;
10295;SDS011;5193;51.032;6.356;2023-07-28T05:15:21;3.57;;;1.20;;
10295;SDS011;5193;51.032;6.356;2023-07-28T05:17:48;3.63;;;1.00;;
10295;SDS011;5193;51.032;6.356;2023-07-28T05:20:14;2.83;;;1.20;;
10295;SDS011;5193;51.032;6.356;2023-07-28T05:22:41;5.00;;;1.40;;
10295;SDS011;5193;51.032;6.356;2023-07-28T05:25:06;2.87;;;1.30;;
10295;SDS011;5193;51.032;6.356;2023-07-28T05:27:32;5.83;;;1.63;;
10295;SDS011;5193;51.032;6.356;2023-07-28T05:29:58;2.23;;;1.80;;
10295;SDS011;5193;51.032;6.356;2023-07-28T05:32:24;2.73;;;1.77;;
10295;SDS011;5193;51.032;6.356;2023-07-28T05:34:49;1.90;;;1.70;;
10295;SDS011;5193;51.032;6.356;2023-07-28T05:37:15;1.83;;;1.73;;
10295;SDS011;5193;51.032;6.356;2023-07-28T05:39:41;3.53;;;2.23;;
10295;SDS011;5193;51.032;6.356;2023-07-28T05:42:07;2.40;;;2.10;;
10295;SDS011;5193;51.032;6.356;2023-07-28T05:44:33;3.87;;;2.17;;
10295;SDS011;5193;51.032;6.356;2023-07-28T05:46:59;4.13;;;2.20;;
10295;SDS011;5193;51.032;6.356;2023-07-28T05:49:24;5.67;;;2.30;;
10295;SDS011;5193;51.032;6.356;2023-07-28T05:51:50;4.07;;;2.23;;
10295;SDS011;5193;51.032;6.356;2023-07-28T05:54:16;4.33;;;2.33;;
10295;SDS011;5193;51.032;6.356;2023-07-28T05:56:41;2.73;;;2.50;;
10295;SDS011;5193;51.032;6.356;2023-07-28T05:59:07;2.70;;;2.50;;
10295;SDS011;5193;51.032;6.356;2023-07-28T06:01:33;3.13;;;2.83;;
10295;SDS011;5193;51.032;6.356;2023-07-28T06:03:59;4.30;;;2.80;;
10295;SDS011;5193;51.032;6.356;2023-07-28T06:06:27;4.60;;;2.90;;
10295;SDS011;5193;51.032;6.356;2023-07-28T06:08:53;4.57;;;2.63;;
10295;SDS011;5193;51.032;6.356;2023-07-28T06:11:20;3.07;;;2.80;;
10295;SDS011;5193;51.032;6.356;2023-07-28T06:13:46;3.47;;;2.60;;
10295;SDS011;5193;51.032;6.356;2023-07-28T06:16:12;3.57;;;2.77;;
10295;SDS011;5193;51.032;6.356;2023-07-28T06:18:41;4.20;;;2.70;;
10295;SDS011;5193;51.032;6.356;2023-07-28T06:21:07;4.60;;;2.63;;
10295;SDS011;5193;51.032;6.356;2023-07-28T06:23:32;4.10;;;2.50;;
10295;SDS011;5193;51.032;6.356;2023-07-28T06:25:58;3.97;;;2.67;;
10295;SDS011;5193;51.032;6.356;2023-07-28T06:28:24;3.67;;;2.93;;
10295;SDS011;5193;51.032;6.356;2023-07-28T06:30:53;3.40;;;2.80;;
10295;SDS011;5193;51.032;6.356;2023-07-28T06:33:20;6.67;;;2.90;;
10295;SDS011;5193;51.032;6.356;2023-07-28T06:35:46;7.33;;;2.80;;
10295;SDS011;5193;51.032;6.356;2023-07-28T06:38:12;4.60;;;2.63;;
10295;SDS011;5193;51.032;6.356;2023-07-28T06:40:37;6.13;;;3.23;;
10295;SDS011;5193;51.032;6.356;2023-07-28T06:43:03;3.47;;;2.40;;
10295;SDS011;5193;51.032;6.356;2023-07-28T06:45:29;7.33;;;2.80;;
10295;SDS011;5193;51.032;6.356;2023-07-28T06:47:54;7.03;;;2.70;;
10295;SDS011;5193;51.032;6.356;2023-07-28T06:50:20;9.20;;;3.00;;
10295;SDS011;5193;51.032;6.356;2023-07-28T06:52:45;5.90;;;2.57;;
10295;SDS011;5193;51.032;6.356;2023-07-28T06:55:13;2.87;;;2.13;;
10295;SDS011;5193;51.032;6.356;2023-07-28T06:57:41;9.33;;;3.00;;
10295;SDS011;5193;51.032;6.356;2023-07-28T07:00:07;6.27;;;2.40;;
10295;SDS011;5193;51.032;6.356;2023-07-28T07:02:36;3.67;;;2.13;;
10295;SDS011;5193;51.032;6.356;2023-07-28T07:05:02;10.67;;;2.20;;
10295;SDS011;5193;51.032;6.356;2023-07-28T07:07:28;4.87;;;2.20;;
10295;SDS011;5193;51.032;6.356;2023-07-28T07:09:55;3.93;;;2.50;;
10295;SDS011;5193;51.032;6.356;2023-07-28T07:12:21;8.63;;;2.47;;
10295;SDS011;5193;51.032;6.356;2023-07-28T07:14:46;4.80;;;2.50;;
10295;SDS011;5193;51.032;6.356;2023-07-28T07:17:12;3.80;;;2.80;;
10295;SDS011;5193;51.032;6.356;2023-07-28T07:19:38;4.53;;;2.40;;
10295;SDS011;5193;51.032;6.356;2023-07-28T07:22:04;4.13;;;2.50;;
10295;SDS011;5193;51.032;6.356;2023-07-28T07:24:30;3.90;;;2.97;;
10295;SDS011;5193;51.032;6.356;2023-07-28T07:26:56;5.73;;;2.50;;
10295;SDS011;5193;51.032;6.356;2023-07-28T07:29:21;5.67;;;3.00;;
10295;SDS011;5193;51.032;6.356;2023-07-28T07:31:47;4.90;;;2.23;;
10295;SDS011;5193;51.032;6.356;2023-07-28T07:34:13;2.97;;;2.17;;
10295;SDS011;5193;51.032;6.356;2023-07-28T07:36:39;3.40;;;2.60;;
10295;SDS011;5193;51.032;6.356;2023-07-28T07:39:05;4.40;;;2.60;;
10295;SDS011;5193;51.032;6.356;2023-07-28T07:41:31;4.67;;;2.37;;
10295;SDS011;5193;51.032;6.356;2023-07-28T07:43:56;7.40;;;2.40;;
10295;SDS011;5193;51.032;6.356;2023-07-28T07:46:22;2.37;;;1.90;;
10295;SDS011;5193;51.032;6.356;2023-07-28T07:48:49;4.20;;;2.00;;
10295;SDS011;5193;51.032;6.356;2023-07-28T07:51:15;2.57;;;1.83;;
10295;SDS011;5193;51.032;6.356;2023-07-28T07:53:41;2.73;;;1.80;;
10295;SDS011;5193;51.032;6.356;2023-07-28T07:56:07;3.40;;;2.30;;
10295;SDS011;5193;51.032;6.356;2023-07-28T07:58:33;3.73;;;1.90;;
10295;SDS011;5193;51.032;6.356;2023-07-28T08:00:59;4.67;;;1.80;;
10295;SDS011;5193;51.032;6.356;2023-07-28T08:03:25;2.67;;;2.00;;
10295;SDS011;5193;51.032;6.356;2023-07-28T08:05:51;2.00;;;1.90;;
10295;SDS011;5193;51.032;6.356;2023-07-28T08:08:17;5.73;;;2.10;;
10295;SDS011;5193;51.032;6.356;2023-07-28T08:10:44;3.00;;;1.73;;
10295;SDS011;5193;51.032;6.356;2023-07-28T08:13:14;3.83;;;1.93;;
10295;SDS011;5193;51.032;6.356;2023-07-28T08:15:40;4.17;;;2.40;;
10295;SDS011;5193;51.032;6.356;2023-07-28T08:18:07;2.47;;;2.17;;
10295;SDS011;5193;51.032;6.356;2023-07-28T08:20:33;2.40;;;2.20;;
10295;SDS011;5193;51.032;6.356;2023-07-28T08:22:58;6.07;;;2.23;;
10295;SDS011;5193;51.032;6.356;2023-07-28T08:25:24;4.30;;;2.13;;
10295;SDS011;5193;51.032;6.356;2023-07-28T08:27:50;6.63;;;2.40;;
10295;SDS011;5193;51.032;6.356;2023-07-28T08:30:15;2.60;;;2.30;;
10295;SDS011;5193;51.032;6.356;2023-07-28T08:32:41;5.10;;;2.50;;
10295;SDS011;5193;51.032;6.356;2023-07-28T08:35:07;3.37;;;2.63;;
10295;SDS011;5193;51.032;6.356;2023-07-28T08:37:34;6.27;;;2.93;;
10295;SDS011;5193;51.032;6.356;2023-07-28T08:40:00;7.87;;;2.40;;
10295;SDS011;5193;51.032;6.356;2023-07-28T08:42:28;2.97;;;2.67;;
10295;SDS011;5193;51.032;6.356;2023-07-28T08:44:55;4.63;;;2.30;;
10295;SDS011;5193;51.032;6.356;2023-07-28T08:47:20;2.90;;;2.30;;
10295;SDS011;5193;51.032;6.356;2023-07-28T08:49:46;3.70;;;2.23;;
10295;SDS011;5193;51.032;6.356;2023-07-28T08:52:14;5.13;;;2.37;;
10295;SDS011;5193;51.032;6.356;2023-07-28T08:54:41;2.33;;;2.13;;
10295;SDS011;5193;51.032;6.356;2023-07-28T08:57:08;2.70;;;1.60;;
10295;SDS011;5193;51.032;6.356;2023-07-28T08:59:35;5.77;;;1.40;;
10295;SDS011;5193;51.032;6.356;2023-07-28T09:02:01;4.93;;;1.50;;
10295;SDS011;5193;51.032;6.356;2023-07-28T09:04:27;1.50;;;1.40;;
10295;SDS011;5193;51.032;6.356;2023-07-28T09:06:53;1.83;;;1.40;;
10295;SDS011;5193;51.032;6.356;2023-07-28T09:09:21;1.80;;;1.60;;
10295;SDS011;5193;51.032;6.356;2023-07-28T09:11:48;2.07;;;1.40;;
10295;SDS011;5193;51.032;6.356;2023-07-28T09:14:18;2.13;;;1.40;;
10295;SDS011;5193;51.032;6.356;2023-07-28T09:16:44;2.20;;;1.63;;
10295;SDS011;5193;51.032;6.356;2023-07-28T09:19:11;3.90;;;1.50;;
10295;SDS011;5193;51.032;6.356;2023-07-28T09:21:41;2.33;;;1.33;;
10295;SDS011;5193;51.032;6.356;2023-07-28T09:24:11;1.20;;;1.10;;
10295;SDS011;5193;51.032;6.356;2023-07-28T09:29:13;1.43;;;0.70;;
10295;SDS011;5193;51.032;6.356;2023-07-28T09:31:40;1.40;;;1.13;;
10295;SDS011;5193;51.032;6.356;2023-07-28T09:34:09;1.73;;;0.90;;
10295;SDS011;5193;51.032;6.356;2023-07-28T09:36:38;1.67;;;1.00;;
10295;SDS011;5193;51.032;6.356;2023-07-28T09:39:05;1.73;;;0.97;;
10295;SDS011;5193;51.032;6.356;2023-07-28T09:41:34;1.80;;;1.10;;
10295;SDS011;5193;51.032;6.356;2023-07-28T09:44:02;1.33;;;0.80;;
10295;SDS011;5193;51.032;6.356;2023-07-28T09:46:28;4.40;;;0.90;;
10295;SDS011;5193;51.032;6.356;2023-07-28T09:48:56;2.33;;;0.90;;
10295;SDS011;5193;51.032;6.356;2023-07-28T09:51:25;0.90;;;0.90;;
10295;SDS011;5193;51.032;6.356;2023-07-28T09:54:01;2.20;;;0.90;;
10295;SDS011;5193;51.032;6.356;2023-07-28T09:56:36;1.07;;;0.97;;
10295;SDS011;5193;51.032;6.356;2023-07-28T09:59:04;4.93;;;1.07;;
10295;SDS011;5193;51.032;6.356;2023-07-28T10:01:37;1.20;;;1.10;;
10295;SDS011;5193;51.032;6.356;2023-07-28T10:04:05;1.27;;;1.17;;
10295;SDS011;5193;51.032;6.356;2023-07-28T10:06:31;3.20;;;1.60;;
10295;SDS011;5193;51.032;6.356;2023-07-28T10:08:58;1.63;;;1.53;;
10295;SDS011;5193;51.032;6.356;2023-07-28T10:11:24;1.50;;;1.40;;
10295;SDS011;5193;51.032;6.356;2023-07-28T10:13:51;1.30;;;1.20;;
10295;SDS011;5193;51.032;6.356;2023-07-28T10:16:20;2.70;;;1.30;;
10295;SDS011;5193;51.032;6.356;2023-07-28T10:18:56;1.73;;;1.40;;
10295;SDS011;5193;51.032;6.356;2023-07-28T10:21:26;2.20;;;1.50;;
10295;SDS011;5193;51.032;6.356;2023-07-28T10:23:54;2.10;;;1.40;;
10295;SDS011;5193;51.032;6.356;2023-07-28T10:26:30;4.00;;;1.43;;
10295;SDS011;5193;51.032;6.356;2023-07-28T10:29:09;2.10;;;1.47;;
10295;SDS011;5193;51.032;6.356;2023-07-28T10:31:50;1.50;;;1.40;;
10295;SDS011;5193;51.032;6.356;2023-07-28T10:34:17;2.10;;;1.40;;
10295;SDS011;5193;51.032;6.356;2023-07-28T10:36:44;1.67;;;1.10;;
10295;SDS011;5193;51.032;6.356;2023-07-28T10:39:16;1.53;;;1.40;;
10295;SDS011;5193;51.032;6.356;2023-07-28T10:44:28;1.30;;;1.20;;
10295;SDS011;5193;51.032;6.356;2023-07-28T10:46:55;2.70;;;1.03;;
10295;SDS011;5193;51.032;6.356;2023-07-28T10:49:21;2.07;;;0.87;;
10295;SDS011;5193;51.032;6.356;2023-07-28T10:51:47;0.73;;;0.70;;
10295;SDS011;5193;51.032;6.356;2023-07-28T10:54:13;2.30;;;0.80;;
10295;SDS011;5193;51.032;6.356;2023-07-28T10:56:41;0.80;;;0.80;;
10295;SDS011;5193;51.032;6.356;2023-07-28T10:59:07;0.70;;;0.70;;
10295;SDS011;5193;51.032;6.356;2023-07-28T11:01:33;1.20;;;0.83;;
10295;SDS011;5193;51.032;6.356;2023-07-28T11:06:45;7.20;;;0.80;;
10295;SDS011;5193;51.032;6.356;2023-07-28T11:09:14;2.13;;;0.80;;
10295;SDS011;5193;51.032;6.356;2023-07-28T11:11:41;0.80;;;0.80;;
10295;SDS011;5193;51.032;6.356;2023-07-28T11:14:08;1.23;;;0.80;;
10295;SDS011;5193;51.032;6.356;2023-07-28T11:16:37;2.40;;;0.97;;
10295;SDS011;5193;51.032;6.356;2023-07-28T11:19:07;1.33;;;0.90;;
10295;SDS011;5193;51.032;6.356;2023-07-28T11:21:36;3.03;;;1.03;;
10295;SDS011;5193;51.032;6.356;2023-07-28T11:24:02;1.33;;;0.97;;
10295;SDS011;5193;51.032;6.356;2023-07-28T11:26:29;4.33;;;1.30;;
10295;SDS011;5193;51.032;6.356;2023-07-28T11:28:55;7.07;;;1.20;;
10295;SDS011;5193;51.032;6.356;2023-07-28T11:31:24;2.20;;;0.97;;
10295;SDS011;5193;51.032;6.356;2023-07-28T11:33:51;2.23;;;1.30;;
10295;SDS011;5193;51.032;6.356;2023-07-28T11:36:36;3.23;;;1.10;;
10295;SDS011;5193;51.032;6.356;2023-07-28T11:39:02;2.50;;;1.10;;
10295;SDS011;5193;51.032;6.356;2023-07-28T11:41:30;1.30;;;0.67;;
10295;SDS011;5193;51.032;6.356;2023-07-28T11:43:58;2.50;;;0.90;;
10295;SDS011;5193;51.032;6.356;2023-07-28T11:46:41;1.33;;;1.00;;
10295;SDS011;5193;51.032;6.356;2023-07-28T11:49:11;1.60;;;1.13;;
10295;SDS011;5193;51.032;6.356;2023-07-28T11:51:41;1.20;;;0.83;;
10295;SDS011;5193;51.032;6.356;2023-07-28T11:54:13;0.80;;;0.80;;
10295;SDS011;5193;51.032;6.356;2023-07-28T11:56:40;0.80;;;0.80;;
10295;SDS011;5193;51.032;6.356;2023-07-28T11:59:07;1.73;;;0.87;;
10295;SDS011;5193;51.032;6.356;2023-07-28T12:01:33;0.83;;;0.80;;
10295;SDS011;5193;51.032;6.356;2023-07-28T12:03:59;3.40;;;1.03;;
10295;SDS011;5193;51.032;6.356;2023-07-28T12:06:25;0.80;;;0.60;;
10295;SDS011;5193;51.032;6.356;2023-07-28T12:08:51;1.60;;;0.70;;
10295;SDS011;5193;51.032;6.356;2023-07-28T12:11:17;0.60;;;0.60;;
10295;SDS011;5193;51.032;6.356;2023-07-28T12:13:50;2.20;;;0.80;;
10295;SDS011;5193;51.032;6.356;2023-07-28T12:16:34;0.63;;;0.60;;
10295;SDS011;5193;51.032;6.356;2023-07-28T12:19:04;2.27;;;0.50;;
10295;SDS011;5193;51.032;6.356;2023-07-28T12:21:30;0.60;;;0.60;;
10295;SDS011;5193;51.032;6.356;2023-07-28T12:23:56;0.47;;;0.47;;
10295;SDS011;5193;51.032;6.356;2023-07-28T12:26:21;1.63;;;0.70;;
10295;SDS011;5193;51.032;6.356;2023-07-28T12:28:47;0.60;;;0.60;;
10295;SDS011;5193;51.032;6.356;2023-07-28T12:31:13;1.67;;;0.50;;
10295;SDS011;5193;51.032;6.356;2023-07-28T12:33:38;0.47;;;0.47;;
10295;SDS011;5193;51.032;6.356;2023-07-28T12:36:04;1.60;;;0.50;;
10295;SDS011;5193;51.032;6.356;2023-07-28T12:38:31;0.93;;;0.50;;
10295;SDS011;5193;51.032;6.356;2023-07-28T12:40:56;1.00;;;0.40;;
10295;SDS011;5193;51.032;6.356;2023-07-28T12:43:22;0.57;;;0.50;;
10295;SDS011;5193;51.032;6.356;2023-07-28T12:45:49;1.67;;;0.90;;
10295;SDS011;5193;51.032;6.356;2023-07-28T12:48:14;2.00;;;0.53;;
10295;SDS011;5193;51.032;6.356;2023-07-28T12:50:40;1.87;;;0.70;;
10295;SDS011;5193;51.032;6.356;2023-07-28T12:53:06;1.10;;;0.70;;
10295;SDS011;5193;51.032;6.356;2023-07-28T12:55:31;1.17;;;0.60;;
10295;SDS011;5193;51.032;6.356;2023-07-28T12:57:59;2.37;;;0.93;;
10295;SDS011;5193;51.032;6.356;2023-07-28T13:00:25;0.90;;;0.70;;
10295;SDS011;5193;51.032;6.356;2023-07-28T13:02:51;0.77;;;0.50;;
10295;SDS011;5193;51.032;6.356;2023-07-28T13:05:16;2.20;;;0.67;;
10295;SDS011;5193;51.032;6.356;2023-07-28T13:07:42;0.80;;;0.80;;
10295;SDS011;5193;51.032;6.356;2023-07-28T13:10:09;1.30;;;0.80;;
10295;SDS011;5193;51.032;6.356;2023-07-28T13:12:36;0.90;;;0.67;;
10295;SDS011;5193;51.032;6.356;2023-07-28T13:15:02;1.00;;;0.90;;
10295;SDS011;5193;51.032;6.356;2023-07-28T13:17:28;2.37;;;1.07;;
10295;SDS011;5193;51.032;6.356;2023-07-28T13:19:54;1.43;;;0.70;;
10295;SDS011;5193;51.032;6.356;2023-07-28T13:22:22;1.40;;;1.17;;
10295;SDS011;5193;51.032;6.356;2023-07-28T13:24:48;1.53;;;1.10;;
10295;SDS011;5193;51.032;6.356;2023-07-28T13:27:13;1.63;;;1.10;;
10295;SDS011;5193;51.032;6.356;2023-07-28T13:29:39;1.30;;;1.10;;
10295;SDS011;5193;51.032;6.356;2023-07-28T13:32:13;2.17;;;1.10;;
10295;SDS011;5193;51.032;6.356;2023-07-28T13:34:43;1.43;;;1.33;;
10295;SDS011;5193;51.032;6.356;2023-07-28T13:37:09;2.10;;;1.00;;
10295;SDS011;5193;51.032;6.356;2023-07-28T13:39:34;0.90;;;0.90;;
10295;SDS011;5193;51.032;6.356;2023-07-28T13:42:00;2.30;;;0.90;;
10295;SDS011;5193;51.032;6.356;2023-07-28T13:44:26;0.70;;;0.70;;
10295;SDS011;5193;51.032;6.356;2023-07-28T13:46:52;0.97;;;0.80;;
10295;SDS011;5193;51.032;6.356;2023-07-28T13:49:19;2.47;;;0.90;;
10295;SDS011;5193;51.032;6.356;2023-07-28T13:51:45;0.83;;;0.83;;
10295;SDS011;5193;51.032;6.356;2023-07-28T13:54:10;1.30;;;0.70;;
10295;SDS011;5193;51.032;6.356;2023-07-28T13:56:36;0.93;;;0.70;;
10295;SDS011;5193;51.032;6.356;2023-07-28T13:59:02;0.70;;;0.70;;
10295;SDS011;5193;51.032;6.356;2023-07-28T14:01:28;1.37;;;0.70;;
10295;SDS011;5193;51.032;6.356;2023-07-28T14:03:53;0.90;;;0.90;;
10295;SDS011;5193;51.032;6.356;2023-07-28T14:06:19;0.90;;;0.80;;
10295;SDS011;5193;51.032;6.356;2023-07-28T14:08:45;0.90;;;0.80;;
10295;SDS011;5193;51.032;6.356;2023-07-28T14:11:11;0.87;;;0.87;;
10295;SDS011;5193;51.032;6.356;2023-07-28T14:13:37;1.40;;;0.90;;
10295;SDS011;5193;51.032;6.356;2023-07-28T14:16:04;2.33;;;0.77;;
10295;SDS011;5193;51.032;6.356;2023-07-28T14:18:31;1.33;;;0.93;;
10295;SDS011;5193;51.032;6.356;2023-07-28T14:20:56;1.33;;;0.83;;
10295;SDS011;5193;51.032;6.356;2023-07-28T14:23:23;1.30;;;1.10;;
10295;SDS011;5193;51.032;6.356;2023-07-28T14:25:50;0.93;;;0.87;;
10295;SDS011;5193;51.032;6.356;2023-07-28T14:28:16;1.13;;;1.03;;
10295;SDS011;5193;51.032;6.356;2023-07-28T14:30:42;1.43;;;1.00;;
10295;SDS011;5193;51.032;6.356;2023-07-28T14:33:11;1.40;;;1.20;;
10295;SDS011;5193;51.032;6.356;2023-07-28T14:35:39;1.13;;;1.03;;
10295;SDS011;5193;51.032;6.356;2023-07-28T14:38:04;1.00;;;0.80;;
10295;SDS011;5193;51.032;6.356;2023-07-28T14:40:30;3.93;;;0.90;;
10295;SDS011;5193;51.032;6.356;2023-07-28T14:42:56;2.23;;;0.80;;
10295;SDS011;5193;51.032;6.356;2023-07-28T14:45:21;0.53;;;0.53;;
10295;SDS011;5193;51.032;6.356;2023-07-28T14:47:48;1.07;;;0.70;;
10295;SDS011;5193;51.032;6.356;2023-07-28T14:50:13;2.40;;;0.87;;
10295;SDS011;5193;51.032;6.356;2023-07-28T14:52:39;0.80;;;0.73;;
10295;SDS011;5193;51.032;6.356;2023-07-28T14:55:05;1.43;;;0.60;;
10295;SDS011;5193;51.032;6.356;2023-07-28T14:57:30;0.80;;;0.80;;
10295;SDS011;5193;51.032;6.356;2023-07-28T14:59:56;1.07;;;0.90;;
10295;SDS011;5193;51.032;6.356;2023-07-28T15:02:22;1.17;;;0.80;;
10295;SDS011;5193;51.032;6.356;2023-07-28T15:04:47;0.83;;;0.80;;
10295;SDS011;5193;51.032;6.356;2023-07-28T15:07:14;3.27;;;0.80;;